sensor_id;sensor_type;location;lat;lon;timestamp;P1;durP1;ratioP1;P2;durP2;ratioP2
76495;SDS011;65329;52.544;4.662;2023-07-29T00:01:58;3.28;;;0.90;;
76495;SDS011;65329;52.544;4.662;2023-07-29T00:04:25;5.18;;;1.38;;
76495;SDS011;65329;52.544;4.662;2023-07-29T00:06:53;2.92;;;1.15;;
76495;SDS011;65329;52.544;4.662;2023-07-29T00:09:20;5.07;;;1.20;;
76495;SDS011;65329;52.544;4.662;2023-07-29T00:11:47;2.92;;;1.10;;
76495;SDS011;65329;52.544;4.662;2023-07-29T00:14:14;3.55;;;0.90;;
76495;SDS011;65329;52.544;4.662;2023-07-29T00:16:41;4.07;;;1.02;;
76495;SDS011;65329;52.544;4.662;2023-07-29T00:19:09;4.45;;;1.05;;
76495;SDS011;65329;52.544;4.662;2023-07-29T00:21:36;2.85;;;0.70;;
76495;SDS011;65329;52.544;4.662;2023-07-29T00:24:04;3.75;;;0.80;;
76495;SDS011;65329;52.544;4.662;2023-07-29T00:26:31;3.10;;;0.88;;
76495;SDS011;65329;52.544;4.662;2023-07-29T00:28:59;3.97;;;0.93;;
76495;SDS011;65329;52.544;4.662;2023-07-29T00:31:27;3.17;;;0.88;;
76495;SDS011;65329;52.544;4.662;2023-07-29T00:33:56;4.10;;;0.80;;
76495;SDS011;65329;52.544;4.662;2023-07-29T00:36:24;2.65;;;0.80;;
76495;SDS011;65329;52.544;4.662;2023-07-29T00:38:51;2.15;;;0.85;;
76495;SDS011;65329;52.544;4.662;2023-07-29T00:41:21;5.63;;;1.10;;
76495;SDS011;65329;52.544;4.662;2023-07-29T00:43:50;2.60;;;1.27;;
76495;SDS011;65329;52.544;4.662;2023-07-29T00:46:17;3.97;;;1.38;;
76495;SDS011;65329;52.544;4.662;2023-07-29T00:48:45;3.25;;;1.00;;
76495;SDS011;65329;52.544;4.662;2023-07-29T00:51:12;3.78;;;1.20;;
76495;SDS011;65329;52.544;4.662;2023-07-29T00:53:39;2.25;;;1.00;;
76495;SDS011;65329;52.544;4.662;2023-07-29T00:56:07;5.75;;;1.27;;
76495;SDS011;65329;52.544;4.662;2023-07-29T00:58:34;4.45;;;1.10;;
76495;SDS011;65329;52.544;4.662;2023-07-29T01:01:01;5.05;;;0.85;;
76495;SDS011;65329;52.544;4.662;2023-07-29T01:03:28;3.80;;;1.10;;
76495;SDS011;65329;52.544;4.662;2023-07-29T01:08:49;5.80;;;1.05;;
76495;SDS011;65329;52.544;4.662;2023-07-29T01:11:29;2.35;;;1.45;;
76495;SDS011;65329;52.544;4.662;2023-07-29T01:14:14;5.60;;;1.83;;
76495;SDS011;65329;52.544;4.662;2023-07-29T01:16:52;3.42;;;1.30;;
76495;SDS011;65329;52.544;4.662;2023-07-29T01:22:11;1.85;;;0.77;;
76495;SDS011;65329;52.544;4.662;2023-07-29T01:24:40;3.25;;;1.00;;
76495;SDS011;65329;52.544;4.662;2023-07-29T01:27:07;4.30;;;1.30;;
76495;SDS011;65329;52.544;4.662;2023-07-29T01:29:34;3.60;;;1.15;;
76495;SDS011;65329;52.544;4.662;2023-07-29T01:32:04;4.32;;;1.45;;
76495;SDS011;65329;52.544;4.662;2023-07-29T01:34:57;6.30;;;1.13;;
76495;SDS011;65329;52.544;4.662;2023-07-29T01:37:30;2.60;;;0.88;;
76495;SDS011;65329;52.544;4.662;2023-07-29T01:40:00;2.45;;;1.38;;
76495;SDS011;65329;52.544;4.662;2023-07-29T01:42:28;5.18;;;1.10;;
76495;SDS011;65329;52.544;4.662;2023-07-29T01:44:57;3.85;;;1.30;;
76495;SDS011;65329;52.544;4.662;2023-07-29T01:47:24;3.92;;;1.15;;
76495;SDS011;65329;52.544;4.662;2023-07-29T01:49:54;3.97;;;1.30;;
76495;SDS011;65329;52.544;4.662;2023-07-29T01:52:21;4.40;;;1.55;;
76495;SDS011;65329;52.544;4.662;2023-07-29T01:54:48;4.88;;;1.00;;
76495;SDS011;65329;52.544;4.662;2023-07-29T01:57:16;4.80;;;1.42;;
76495;SDS011;65329;52.544;4.662;2023-07-29T01:59:45;7.35;;;1.63;;
76495;SDS011;65329;52.544;4.662;2023-07-29T02:02:12;7.55;;;1.63;;
76495;SDS011;65329;52.544;4.662;2023-07-29T02:04:39;5.90;;;1.42;;
76495;SDS011;65329;52.544;4.662;2023-07-29T02:07:06;4.43;;;1.30;;
76495;SDS011;65329;52.544;4.662;2023-07-29T02:09:33;5.05;;;1.63;;
76495;SDS011;65329;52.544;4.662;2023-07-29T02:12:00;4.63;;;1.45;;
76495;SDS011;65329;52.544;4.662;2023-07-29T02:14:36;4.35;;;1.50;;
76495;SDS011;65329;52.544;4.662;2023-07-29T02:17:03;6.13;;;1.60;;
76495;SDS011;65329;52.544;4.662;2023-07-29T02:19:31;2.53;;;1.35;;
76495;SDS011;65329;52.544;4.662;2023-07-29T02:21:58;4.72;;;1.60;;
76495;SDS011;65329;52.544;4.662;2023-07-29T02:24:25;4.15;;;1.50;;
76495;SDS011;65329;52.544;4.662;2023-07-29T02:26:52;5.25;;;1.73;;
76495;SDS011;65329;52.544;4.662;2023-07-29T02:29:19;6.15;;;1.70;;
76495;SDS011;65329;52.544;4.662;2023-07-29T02:31:46;5.13;;;1.10;;
76495;SDS011;65329;52.544;4.662;2023-07-29T02:34:14;2.90;;;1.20;;
76495;SDS011;65329;52.544;4.662;2023-07-29T02:36:41;6.60;;;1.80;;
76495;SDS011;65329;52.544;4.662;2023-07-29T02:39:08;4.82;;;1.60;;
76495;SDS011;65329;52.544;4.662;2023-07-29T02:41:36;4.72;;;1.20;;
76495;SDS011;65329;52.544;4.662;2023-07-29T02:44:03;4.65;;;1.50;;
76495;SDS011;65329;52.544;4.662;2023-07-29T02:46:31;3.05;;;1.63;;
76495;SDS011;65329;52.544;4.662;2023-07-29T02:48:58;6.00;;;1.45;;
76495;SDS011;65329;52.544;4.662;2023-07-29T02:51:25;4.22;;;1.08;;
76495;SDS011;65329;52.544;4.662;2023-07-29T02:53:53;8.75;;;1.33;;
76495;SDS011;65329;52.544;4.662;2023-07-29T02:56:19;6.00;;;1.50;;
76495;SDS011;65329;52.544;4.662;2023-07-29T02:58:47;7.68;;;1.55;;
76495;SDS011;65329;52.544;4.662;2023-07-29T03:01:14;3.55;;;1.20;;
76495;SDS011;65329;52.544;4.662;2023-07-29T03:03:41;6.10;;;1.40;;
76495;SDS011;65329;52.544;4.662;2023-07-29T03:06:10;5.80;;;1.50;;
76495;SDS011;65329;52.544;4.662;2023-07-29T03:08:38;3.35;;;1.35;;
76495;SDS011;65329;52.544;4.662;2023-07-29T03:11:09;2.45;;;1.20;;
76495;SDS011;65329;52.544;4.662;2023-07-29T03:13:38;5.35;;;1.30;;
76495;SDS011;65329;52.544;4.662;2023-07-29T03:16:11;5.38;;;1.00;;
76495;SDS011;65329;52.544;4.662;2023-07-29T03:18:44;4.47;;;1.08;;
76495;SDS011;65329;52.544;4.662;2023-07-29T03:21:12;2.20;;;0.68;;
76495;SDS011;65329;52.544;4.662;2023-07-29T03:23:39;7.40;;;1.42;;
76495;SDS011;65329;52.544;4.662;2023-07-29T03:26:06;3.92;;;1.10;;
76495;SDS011;65329;52.544;4.662;2023-07-29T03:28:39;7.13;;;2.10;;
76495;SDS011;65329;52.544;4.662;2023-07-29T03:31:08;3.72;;;1.50;;
76495;SDS011;65329;52.544;4.662;2023-07-29T03:33:36;5.25;;;1.50;;
76495;SDS011;65329;52.544;4.662;2023-07-29T03:36:04;3.70;;;1.35;;
76495;SDS011;65329;52.544;4.662;2023-07-29T03:38:31;3.13;;;1.15;;
76495;SDS011;65329;52.544;4.662;2023-07-29T03:40:59;3.50;;;1.25;;
76495;SDS011;65329;52.544;4.662;2023-07-29T03:43:28;2.75;;;1.15;;
76495;SDS011;65329;52.544;4.662;2023-07-29T03:45:58;3.33;;;1.17;;
76495;SDS011;65329;52.544;4.662;2023-07-29T03:48:25;5.60;;;1.50;;
76495;SDS011;65329;52.544;4.662;2023-07-29T03:50:53;4.05;;;1.10;;
76495;SDS011;65329;52.544;4.662;2023-07-29T03:53:21;5.93;;;1.40;;
76495;SDS011;65329;52.544;4.662;2023-07-29T03:55:48;5.68;;;1.55;;
76495;SDS011;65329;52.544;4.662;2023-07-29T03:58:17;4.25;;;1.65;;
76495;SDS011;65329;52.544;4.662;2023-07-29T04:00:44;4.47;;;1.50;;
76495;SDS011;65329;52.544;4.662;2023-07-29T04:03:11;2.47;;;1.05;;
76495;SDS011;65329;52.544;4.662;2023-07-29T04:05:38;3.10;;;1.00;;
76495;SDS011;65329;52.544;4.662;2023-07-29T04:08:05;5.95;;;1.25;;
76495;SDS011;65329;52.544;4.662;2023-07-29T04:10:32;4.25;;;1.20;;
76495;SDS011;65329;52.544;4.662;2023-07-29T04:13:01;4.05;;;1.40;;
76495;SDS011;65329;52.544;4.662;2023-07-29T04:15:29;4.43;;;1.23;;
76495;SDS011;65329;52.544;4.662;2023-07-29T04:17:57;3.92;;;1.15;;
76495;SDS011;65329;52.544;4.662;2023-07-29T04:20:24;3.65;;;1.27;;
76495;SDS011;65329;52.544;4.662;2023-07-29T04:22:51;3.00;;;1.27;;
76495;SDS011;65329;52.544;4.662;2023-07-29T04:25:19;4.43;;;1.73;;
76495;SDS011;65329;52.544;4.662;2023-07-29T04:27:46;3.38;;;1.55;;
76495;SDS011;65329;52.544;4.662;2023-07-29T04:30:13;5.55;;;1.02;;
76495;SDS011;65329;52.544;4.662;2023-07-29T04:32:40;4.13;;;1.23;;
76495;SDS011;65329;52.544;4.662;2023-07-29T04:35:09;3.60;;;1.17;;
76495;SDS011;65329;52.544;4.662;2023-07-29T04:37:36;3.35;;;1.38;;
76495;SDS011;65329;52.544;4.662;2023-07-29T04:40:03;4.18;;;1.23;;
76495;SDS011;65329;52.544;4.662;2023-07-29T04:42:30;3.63;;;1.65;;
76495;SDS011;65329;52.544;4.662;2023-07-29T04:44:57;3.85;;;1.35;;
76495;SDS011;65329;52.544;4.662;2023-07-29T04:47:25;4.93;;;1.63;;
76495;SDS011;65329;52.544;4.662;2023-07-29T04:49:53;3.22;;;1.23;;
76495;SDS011;65329;52.544;4.662;2023-07-29T04:52:20;3.92;;;1.50;;
76495;SDS011;65329;52.544;4.662;2023-07-29T04:54:48;2.08;;;1.02;;
76495;SDS011;65329;52.544;4.662;2023-07-29T04:57:15;4.32;;;1.15;;
76495;SDS011;65329;52.544;4.662;2023-07-29T04:59:42;2.35;;;1.35;;
76495;SDS011;65329;52.544;4.662;2023-07-29T05:02:10;5.63;;;1.25;;
76495;SDS011;65329;52.544;4.662;2023-07-29T05:04:37;5.68;;;1.50;;
76495;SDS011;65329;52.544;4.662;2023-07-29T05:07:04;3.88;;;1.48;;
76495;SDS011;65329;52.544;4.662;2023-07-29T05:09:32;3.78;;;1.23;;
76495;SDS011;65329;52.544;4.662;2023-07-29T05:11:59;2.15;;;1.00;;
76495;SDS011;65329;52.544;4.662;2023-07-29T05:14:26;3.72;;;0.98;;
76495;SDS011;65329;52.544;4.662;2023-07-29T05:16:54;7.97;;;1.83;;
76495;SDS011;65329;52.544;4.662;2023-07-29T05:19:20;2.30;;;1.20;;
76495;SDS011;65329;52.544;4.662;2023-07-29T05:21:48;6.47;;;1.48;;
76495;SDS011;65329;52.544;4.662;2023-07-29T05:24:15;5.25;;;1.92;;
76495;SDS011;65329;52.544;4.662;2023-07-29T05:26:42;3.92;;;1.33;;
76495;SDS011;65329;52.544;4.662;2023-07-29T05:29:09;6.00;;;1.30;;
76495;SDS011;65329;52.544;4.662;2023-07-29T05:31:36;5.32;;;1.70;;
76495;SDS011;65329;52.544;4.662;2023-07-29T05:34:04;2.90;;;0.93;;
76495;SDS011;65329;52.544;4.662;2023-07-29T05:36:31;5.45;;;1.45;;
76495;SDS011;65329;52.544;4.662;2023-07-29T05:38:58;6.15;;;1.65;;
76495;SDS011;65329;52.544;4.662;2023-07-29T05:41:28;5.32;;;1.65;;
76495;SDS011;65329;52.544;4.662;2023-07-29T05:43:56;3.67;;;1.42;;
76495;SDS011;65329;52.544;4.662;2023-07-29T05:46:22;6.53;;;1.58;;
76495;SDS011;65329;52.544;4.662;2023-07-29T05:48:50;3.15;;;1.25;;
76495;SDS011;65329;52.544;4.662;2023-07-29T05:51:17;4.95;;;1.67;;
76495;SDS011;65329;52.544;4.662;2023-07-29T05:53:44;5.30;;;1.63;;
76495;SDS011;65329;52.544;4.662;2023-07-29T05:56:11;7.97;;;1.20;;
76495;SDS011;65329;52.544;4.662;2023-07-29T05:58:38;5.78;;;1.52;;
76495;SDS011;65329;52.544;4.662;2023-07-29T06:01:06;4.72;;;1.23;;
76495;SDS011;65329;52.544;4.662;2023-07-29T06:03:33;5.63;;;1.40;;
76495;SDS011;65329;52.544;4.662;2023-07-29T06:06:01;7.28;;;1.88;;
76495;SDS011;65329;52.544;4.662;2023-07-29T06:08:29;5.32;;;2.03;;
76495;SDS011;65329;52.544;4.662;2023-07-29T06:10:56;4.65;;;1.00;;
76495;SDS011;65329;52.544;4.662;2023-07-29T06:13:23;3.83;;;1.30;;
76495;SDS011;65329;52.544;4.662;2023-07-29T06:15:50;6.10;;;2.15;;
76495;SDS011;65329;52.544;4.662;2023-07-29T06:18:17;2.50;;;1.13;;
76495;SDS011;65329;52.544;4.662;2023-07-29T06:20:45;4.80;;;1.05;;
76495;SDS011;65329;52.544;4.662;2023-07-29T06:23:12;6.93;;;1.50;;
76495;SDS011;65329;52.544;4.662;2023-07-29T06:25:39;5.82;;;1.15;;
76495;SDS011;65329;52.544;4.662;2023-07-29T06:28:08;4.20;;;1.10;;
76495;SDS011;65329;52.544;4.662;2023-07-29T06:30:36;3.30;;;1.52;;
76495;SDS011;65329;52.544;4.662;2023-07-29T06:33:03;5.28;;;1.75;;
76495;SDS011;65329;52.544;4.662;2023-07-29T06:35:30;5.10;;;1.58;;
76495;SDS011;65329;52.544;4.662;2023-07-29T06:37:58;3.85;;;1.45;;
76495;SDS011;65329;52.544;4.662;2023-07-29T06:40:25;7.75;;;1.27;;
76495;SDS011;65329;52.544;4.662;2023-07-29T06:42:52;6.32;;;1.52;;
76495;SDS011;65329;52.544;4.662;2023-07-29T06:45:19;6.25;;;1.50;;
76495;SDS011;65329;52.544;4.662;2023-07-29T06:47:46;4.30;;;1.20;;
76495;SDS011;65329;52.544;4.662;2023-07-29T06:50:13;2.03;;;1.33;;
76495;SDS011;65329;52.544;4.662;2023-07-29T06:52:40;4.63;;;1.83;;
76495;SDS011;65329;52.544;4.662;2023-07-29T06:55:07;4.03;;;1.05;;
76495;SDS011;65329;52.544;4.662;2023-07-29T06:57:35;6.28;;;1.10;;
76495;SDS011;65329;52.544;4.662;2023-07-29T07:00:03;5.82;;;1.10;;
76495;SDS011;65329;52.544;4.662;2023-07-29T07:02:31;7.03;;;1.20;;
76495;SDS011;65329;52.544;4.662;2023-07-29T07:04:58;3.28;;;0.82;;
76495;SDS011;65329;52.544;4.662;2023-07-29T07:07:26;3.83;;;1.05;;
76495;SDS011;65329;52.544;4.662;2023-07-29T07:09:53;2.97;;;0.95;;
76495;SDS011;65329;52.544;4.662;2023-07-29T07:12:21;4.70;;;1.52;;
76495;SDS011;65329;52.544;4.662;2023-07-29T07:14:48;4.90;;;1.30;;
76495;SDS011;65329;52.544;4.662;2023-07-29T07:17:16;3.78;;;1.02;;
76495;SDS011;65329;52.544;4.662;2023-07-29T07:19:43;2.40;;;0.82;;
76495;SDS011;65329;52.544;4.662;2023-07-29T07:22:10;2.38;;;0.90;;
76495;SDS011;65329;52.544;4.662;2023-07-29T07:24:37;4.88;;;1.20;;
76495;SDS011;65329;52.544;4.662;2023-07-29T07:27:04;4.07;;;1.02;;
76495;SDS011;65329;52.544;4.662;2023-07-29T07:29:32;4.13;;;0.98;;
76495;SDS011;65329;52.544;4.662;2023-07-29T07:31:59;5.38;;;1.00;;
76495;SDS011;65329;52.544;4.662;2023-07-29T07:34:26;6.82;;;1.10;;
76495;SDS011;65329;52.544;4.662;2023-07-29T07:36:53;3.50;;;0.98;;
76495;SDS011;65329;52.544;4.662;2023-07-29T07:39:20;5.75;;;1.35;;
76495;SDS011;65329;52.544;4.662;2023-07-29T07:41:47;7.95;;;1.08;;
76495;SDS011;65329;52.544;4.662;2023-07-29T07:44:15;6.32;;;1.55;;
76495;SDS011;65329;52.544;4.662;2023-07-29T07:46:44;3.38;;;0.90;;
76495;SDS011;65329;52.544;4.662;2023-07-29T07:49:11;2.70;;;1.45;;
76495;SDS011;65329;52.544;4.662;2023-07-29T07:51:39;2.70;;;0.93;;
76495;SDS011;65329;52.544;4.662;2023-07-29T07:54:06;4.20;;;0.85;;
76495;SDS011;65329;52.544;4.662;2023-07-29T07:56:33;6.50;;;1.02;;
76495;SDS011;65329;52.544;4.662;2023-07-29T07:59:01;4.80;;;1.17;;
76495;SDS011;65329;52.544;4.662;2023-07-29T08:01:33;3.45;;;0.90;;
76495;SDS011;65329;52.544;4.662;2023-07-29T08:04:02;5.28;;;1.00;;
76495;SDS011;65329;52.544;4.662;2023-07-29T08:06:31;6.47;;;1.13;;
76495;SDS011;65329;52.544;4.662;2023-07-29T08:08:59;4.40;;;1.20;;
76495;SDS011;65329;52.544;4.662;2023-07-29T08:11:26;2.63;;;0.85;;
76495;SDS011;65329;52.544;4.662;2023-07-29T08:13:53;3.15;;;1.00;;
76495;SDS011;65329;52.544;4.662;2023-07-29T08:16:20;4.70;;;1.08;;
76495;SDS011;65329;52.544;4.662;2023-07-29T08:18:47;4.28;;;1.08;;
76495;SDS011;65329;52.544;4.662;2023-07-29T08:21:14;9.02;;;1.67;;
76495;SDS011;65329;52.544;4.662;2023-07-29T08:23:42;9.30;;;1.33;;
76495;SDS011;65329;52.544;4.662;2023-07-29T08:26:09;4.85;;;1.80;;
76495;SDS011;65329;52.544;4.662;2023-07-29T08:28:37;3.80;;;1.42;;
76495;SDS011;65329;52.544;4.662;2023-07-29T08:31:05;7.40;;;1.60;;
76495;SDS011;65329;52.544;4.662;2023-07-29T08:33:33;4.20;;;1.40;;
76495;SDS011;65329;52.544;4.662;2023-07-29T08:36:00;3.03;;;1.17;;
76495;SDS011;65329;52.544;4.662;2023-07-29T08:38:29;3.00;;;1.25;;
76495;SDS011;65329;52.544;4.662;2023-07-29T08:46:45;5.05;;;1.83;;
76495;SDS011;65329;52.544;4.662;2023-07-29T08:49:12;7.18;;;1.85;;
76495;SDS011;65329;52.544;4.662;2023-07-29T08:51:41;4.15;;;1.75;;
76495;SDS011;65329;52.544;4.662;2023-07-29T08:54:11;4.35;;;1.55;;
76495;SDS011;65329;52.544;4.662;2023-07-29T08:56:40;6.10;;;2.05;;
76495;SDS011;65329;52.544;4.662;2023-07-29T08:59:08;5.32;;;1.65;;
76495;SDS011;65329;52.544;4.662;2023-07-29T09:01:36;8.10;;;1.90;;
76495;SDS011;65329;52.544;4.662;2023-07-29T09:04:05;5.13;;;1.95;;
76495;SDS011;65329;52.544;4.662;2023-07-29T09:06:32;3.97;;;1.67;;
76495;SDS011;65329;52.544;4.662;2023-07-29T09:09:01;5.47;;;1.23;;
76495;SDS011;65329;52.544;4.662;2023-07-29T09:11:30;6.57;;;1.80;;
76495;SDS011;65329;52.544;4.662;2023-07-29T09:13:57;4.38;;;1.70;;
76495;SDS011;65329;52.544;4.662;2023-07-29T09:16:25;1.75;;;1.45;;
76495;SDS011;65329;52.544;4.662;2023-07-29T09:18:53;5.90;;;1.55;;
76495;SDS011;65329;52.544;4.662;2023-07-29T09:21:25;3.75;;;1.50;;
76495;SDS011;65329;52.544;4.662;2023-07-29T09:26:26;4.85;;;1.20;;
76495;SDS011;65329;52.544;4.662;2023-07-29T09:28:58;9.70;;;2.03;;
76495;SDS011;65329;52.544;4.662;2023-07-29T09:31:26;3.03;;;1.65;;
76495;SDS011;65329;52.544;4.662;2023-07-29T09:33:58;5.18;;;1.58;;
76495;SDS011;65329;52.544;4.662;2023-07-29T09:36:26;7.40;;;1.60;;
76495;SDS011;65329;52.544;4.662;2023-07-29T09:38:54;4.28;;;1.48;;
76495;SDS011;65329;52.544;4.662;2023-07-29T09:41:22;3.22;;;1.20;;
76495;SDS011;65329;52.544;4.662;2023-07-29T09:44:00;3.60;;;1.80;;
76495;SDS011;65329;52.544;4.662;2023-07-29T09:46:35;6.03;;;1.70;;
76495;SDS011;65329;52.544;4.662;2023-07-29T09:49:05;5.15;;;1.50;;
76495;SDS011;65329;52.544;4.662;2023-07-29T09:51:37;8.10;;;1.80;;
76495;SDS011;65329;52.544;4.662;2023-07-29T09:54:05;4.18;;;1.67;;
76495;SDS011;65329;52.544;4.662;2023-07-29T09:56:33;5.25;;;1.48;;
76495;SDS011;65329;52.544;4.662;2023-07-29T09:59:05;5.28;;;1.60;;
76495;SDS011;65329;52.544;4.662;2023-07-29T10:01:32;3.78;;;1.60;;
76495;SDS011;65329;52.544;4.662;2023-07-29T10:04:03;4.78;;;1.10;;
76495;SDS011;65329;52.544;4.662;2023-07-29T10:06:34;2.63;;;1.40;;
76495;SDS011;65329;52.544;4.662;2023-07-29T10:09:02;8.32;;;2.17;;
76495;SDS011;65329;52.544;4.662;2023-07-29T10:11:30;3.40;;;1.40;;
76495;SDS011;65329;52.544;4.662;2023-07-29T10:13:59;4.03;;;1.30;;
76495;SDS011;65329;52.544;4.662;2023-07-29T10:16:36;3.55;;;1.70;;
76495;SDS011;65329;52.544;4.662;2023-07-29T10:19:05;4.13;;;1.85;;
76495;SDS011;65329;52.544;4.662;2023-07-29T10:21:34;4.07;;;1.95;;
76495;SDS011;65329;52.544;4.662;2023-07-29T10:24:05;6.32;;;1.63;;
76495;SDS011;65329;52.544;4.662;2023-07-29T10:26:36;3.05;;;1.42;;
76495;SDS011;65329;52.544;4.662;2023-07-29T10:29:10;3.80;;;1.42;;
76495;SDS011;65329;52.544;4.662;2023-07-29T10:31:40;6.90;;;2.05;;
76495;SDS011;65329;52.544;4.662;2023-07-29T10:34:10;6.55;;;1.55;;
76495;SDS011;65329;52.544;4.662;2023-07-29T10:36:39;4.35;;;1.67;;
76495;SDS011;65329;52.544;4.662;2023-07-29T10:39:07;4.43;;;1.55;;
76495;SDS011;65329;52.544;4.662;2023-07-29T10:41:55;6.30;;;2.65;;
76495;SDS011;65329;52.544;4.662;2023-07-29T10:50:16;5.43;;;1.75;;
76495;SDS011;65329;52.544;4.662;2023-07-29T10:52:43;4.28;;;1.30;;
76495;SDS011;65329;52.544;4.662;2023-07-29T10:55:22;4.18;;;1.33;;
76495;SDS011;65329;52.544;4.662;2023-07-29T11:00:57;4.57;;;1.38;;
76495;SDS011;65329;52.544;4.662;2023-07-29T11:03:24;3.65;;;1.63;;
76495;SDS011;65329;52.544;4.662;2023-07-29T11:05:56;2.90;;;1.02;;
76495;SDS011;65329;52.544;4.662;2023-07-29T11:08:31;5.03;;;1.50;;
76495;SDS011;65329;52.544;4.662;2023-07-29T11:11:07;4.55;;;1.02;;
76495;SDS011;65329;52.544;4.662;2023-07-29T11:13:38;4.45;;;1.40;;
76495;SDS011;65329;52.544;4.662;2023-07-29T11:16:06;3.15;;;1.17;;
76495;SDS011;65329;52.544;4.662;2023-07-29T11:18:34;6.78;;;1.40;;
76495;SDS011;65329;52.544;4.662;2023-07-29T11:21:02;4.55;;;1.45;;
76495;SDS011;65329;52.544;4.662;2023-07-29T11:23:31;4.32;;;1.30;;
76495;SDS011;65329;52.544;4.662;2023-07-29T11:26:01;1.83;;;1.00;;
76495;SDS011;65329;52.544;4.662;2023-07-29T11:28:30;1.83;;;0.82;;
76495;SDS011;65329;52.544;4.662;2023-07-29T11:31:04;3.78;;;1.13;;
76495;SDS011;65329;52.544;4.662;2023-07-29T11:33:30;2.70;;;1.20;;
76495;SDS011;65329;52.544;4.662;2023-07-29T11:35:58;2.78;;;1.10;;
76495;SDS011;65329;52.544;4.662;2023-07-29T11:38:25;5.95;;;1.65;;
76495;SDS011;65329;52.544;4.662;2023-07-29T11:40:58;3.67;;;1.00;;
76495;SDS011;65329;52.544;4.662;2023-07-29T11:43:26;2.50;;;0.70;;
76495;SDS011;65329;52.544;4.662;2023-07-29T11:45:53;3.47;;;1.02;;
76495;SDS011;65329;52.544;4.662;2023-07-29T11:48:27;3.80;;;1.13;;
76495;SDS011;65329;52.544;4.662;2023-07-29T11:50:58;3.75;;;1.02;;
76495;SDS011;65329;52.544;4.662;2023-07-29T11:53:28;4.30;;;1.13;;
76495;SDS011;65329;52.544;4.662;2023-07-29T11:55:59;4.40;;;0.80;;
76495;SDS011;65329;52.544;4.662;2023-07-29T11:58:26;3.63;;;1.20;;
76495;SDS011;65329;52.544;4.662;2023-07-29T12:00:53;1.33;;;0.77;;
76495;SDS011;65329;52.544;4.662;2023-07-29T12:03:21;0.90;;;0.50;;
76495;SDS011;65329;52.544;4.662;2023-07-29T12:05:49;3.13;;;0.60;;
76495;SDS011;65329;52.544;4.662;2023-07-29T12:08:16;2.65;;;0.60;;
76495;SDS011;65329;52.544;4.662;2023-07-29T12:10:43;3.47;;;0.80;;
76495;SDS011;65329;52.544;4.662;2023-07-29T12:13:10;2.97;;;0.82;;
76495;SDS011;65329;52.544;4.662;2023-07-29T12:15:38;1.92;;;0.68;;
76495;SDS011;65329;52.544;4.662;2023-07-29T12:18:06;3.00;;;0.60;;
76495;SDS011;65329;52.544;4.662;2023-07-29T12:20:33;2.70;;;1.13;;
76495;SDS011;65329;52.544;4.662;2023-07-29T12:23:01;4.15;;;0.73;;
76495;SDS011;65329;52.544;4.662;2023-07-29T12:25:29;2.55;;;0.65;;
76495;SDS011;65329;52.544;4.662;2023-07-29T12:28:01;3.45;;;0.98;;
76495;SDS011;65329;52.544;4.662;2023-07-29T12:30:43;2.13;;;0.70;;
76495;SDS011;65329;52.544;4.662;2023-07-29T12:33:10;2.35;;;0.43;;
76495;SDS011;65329;52.544;4.662;2023-07-29T12:35:37;1.83;;;0.70;;
76495;SDS011;65329;52.544;4.662;2023-07-29T12:38:04;1.73;;;0.40;;
76495;SDS011;65329;52.544;4.662;2023-07-29T12:40:37;2.65;;;0.95;;
76495;SDS011;65329;52.544;4.662;2023-07-29T12:43:05;1.05;;;0.60;;
76495;SDS011;65329;52.544;4.662;2023-07-29T12:45:35;3.67;;;0.60;;
76495;SDS011;65329;52.544;4.662;2023-07-29T12:48:03;3.25;;;0.82;;
76495;SDS011;65329;52.544;4.662;2023-07-29T12:50:30;1.85;;;0.50;;
76495;SDS011;65329;52.544;4.662;2023-07-29T12:52:57;3.92;;;0.45;;
76495;SDS011;65329;52.544;4.662;2023-07-29T12:55:24;3.13;;;0.45;;
76495;SDS011;65329;52.544;4.662;2023-07-29T12:57:51;2.63;;;0.60;;
76495;SDS011;65329;52.544;4.662;2023-07-29T13:00:18;1.20;;;0.60;;
76495;SDS011;65329;52.544;4.662;2023-07-29T13:02:45;2.47;;;0.40;;
76495;SDS011;65329;52.544;4.662;2023-07-29T13:05:15;0.73;;;0.50;;
76495;SDS011;65329;52.544;4.662;2023-07-29T13:07:44;2.30;;;0.47;;
76495;SDS011;65329;52.544;4.662;2023-07-29T13:10:12;1.92;;;0.55;;
76495;SDS011;65329;52.544;4.662;2023-07-29T13:12:39;1.27;;;0.47;;
76495;SDS011;65329;52.544;4.662;2023-07-29T13:15:07;2.22;;;0.40;;
76495;SDS011;65329;52.544;4.662;2023-07-29T13:17:34;2.10;;;0.60;;
76495;SDS011;65329;52.544;4.662;2023-07-29T13:20:05;2.75;;;0.40;;
76495;SDS011;65329;52.544;4.662;2023-07-29T13:22:38;2.55;;;0.50;;
76495;SDS011;65329;52.544;4.662;2023-07-29T13:25:06;2.25;;;0.57;;
76495;SDS011;65329;52.544;4.662;2023-07-29T13:27:33;0.98;;;0.40;;
76495;SDS011;65329;52.544;4.662;2023-07-29T13:30:00;2.83;;;0.45;;
76495;SDS011;65329;52.544;4.662;2023-07-29T13:32:27;2.03;;;0.50;;
76495;SDS011;65329;52.544;4.662;2023-07-29T13:34:54;0.57;;;0.40;;
76495;SDS011;65329;52.544;4.662;2023-07-29T13:37:21;1.60;;;0.60;;
76495;SDS011;65329;52.544;4.662;2023-07-29T13:39:48;1.15;;;0.40;;
76495;SDS011;65329;52.544;4.662;2023-07-29T13:42:15;0.60;;;0.30;;
76495;SDS011;65329;52.544;4.662;2023-07-29T13:44:42;1.95;;;0.80;;
76495;SDS011;65329;52.544;4.662;2023-07-29T13:47:10;3.90;;;0.60;;
76495;SDS011;65329;52.544;4.662;2023-07-29T13:49:37;0.80;;;0.40;;
76495;SDS011;65329;52.544;4.662;2023-07-29T13:52:04;0.65;;;0.65;;
76495;SDS011;65329;52.544;4.662;2023-07-29T13:54:31;1.98;;;0.57;;
76495;SDS011;65329;52.544;4.662;2023-07-29T13:56:59;1.63;;;0.47;;
76495;SDS011;65329;52.544;4.662;2023-07-29T13:59:26;1.20;;;0.40;;
76495;SDS011;65329;52.544;4.662;2023-07-29T14:01:53;1.75;;;0.52;;
76495;SDS011;65329;52.544;4.662;2023-07-29T14:04:20;2.20;;;0.60;;
76495;SDS011;65329;52.544;4.662;2023-07-29T14:06:47;2.85;;;0.50;;
76495;SDS011;65329;52.544;4.662;2023-07-29T14:09:23;2.28;;;0.60;;
76495;SDS011;65329;52.544;4.662;2023-07-29T14:11:50;2.67;;;0.57;;
76495;SDS011;65329;52.544;4.662;2023-07-29T14:14:17;2.03;;;0.68;;
76495;SDS011;65329;52.544;4.662;2023-07-29T14:16:47;2.33;;;0.70;;
76495;SDS011;65329;52.544;4.662;2023-07-29T14:19:15;2.22;;;0.65;;
76495;SDS011;65329;52.544;4.662;2023-07-29T14:21:43;0.45;;;0.45;;
76495;SDS011;65329;52.544;4.662;2023-07-29T14:24:10;1.42;;;0.75;;
76495;SDS011;65329;52.544;4.662;2023-07-29T14:26:37;2.67;;;0.80;;
76495;SDS011;65329;52.544;4.662;2023-07-29T14:29:04;1.83;;;0.60;;
76495;SDS011;65329;52.544;4.662;2023-07-29T14:31:31;1.50;;;0.90;;
76495;SDS011;65329;52.544;4.662;2023-07-29T14:33:58;2.78;;;0.80;;
76495;SDS011;65329;52.544;4.662;2023-07-29T14:36:26;1.52;;;0.70;;
76495;SDS011;65329;52.544;4.662;2023-07-29T14:38:55;1.55;;;0.73;;
76495;SDS011;65329;52.544;4.662;2023-07-29T14:41:22;2.38;;;0.85;;
76495;SDS011;65329;52.544;4.662;2023-07-29T14:43:49;2.83;;;0.60;;
76495;SDS011;65329;52.544;4.662;2023-07-29T14:46:16;4.32;;;0.82;;
76495;SDS011;65329;52.544;4.662;2023-07-29T14:48:43;2.35;;;0.88;;
76495;SDS011;65329;52.544;4.662;2023-07-29T14:51:10;1.98;;;0.55;;
76495;SDS011;65329;52.544;4.662;2023-07-29T14:53:37;3.40;;;0.93;;
76495;SDS011;65329;52.544;4.662;2023-07-29T14:56:04;2.15;;;0.82;;
76495;SDS011;65329;52.544;4.662;2023-07-29T14:58:32;0.95;;;0.80;;
76495;SDS011;65329;52.544;4.662;2023-07-29T15:00:58;2.17;;;0.98;;
76495;SDS011;65329;52.544;4.662;2023-07-29T15:03:26;1.63;;;0.95;;
76495;SDS011;65329;52.544;4.662;2023-07-29T15:05:53;2.95;;;1.30;;
76495;SDS011;65329;52.544;4.662;2023-07-29T15:08:20;6.13;;;0.90;;
76495;SDS011;65329;52.544;4.662;2023-07-29T15:10:47;3.50;;;1.75;;
76495;SDS011;65329;52.544;4.662;2023-07-29T15:13:14;2.38;;;1.20;;
76495;SDS011;65329;52.544;4.662;2023-07-29T15:15:42;2.90;;;1.20;;
76495;SDS011;65329;52.544;4.662;2023-07-29T15:18:10;2.97;;;0.90;;